createdAt,value
2022-08-12T00:00:02.878Z,2.40
2022-08-12T00:02:49.740Z,2.50
2022-08-12T00:05:35.311Z,2.85
2022-08-12T00:08:28.826Z,2.47
2022-08-12T00:11:22.512Z,2.90
2022-08-12T00:14:07.890Z,2.70
2022-08-12T00:16:53.646Z,2.53
2022-08-12T00:19:39.202Z,2.78
2022-08-12T00:22:26.548Z,2.63
2022-08-12T00:25:18.248Z,2.85
2022-08-12T00:28:06.803Z,2.58
2022-08-12T00:30:55.603Z,2.40
2022-08-12T00:33:51.727Z,2.60
2022-08-12T00:36:46.255Z,2.60
2022-08-12T00:39:36.513Z,2.70
2022-08-12T00:42:12.842Z,2.72
2022-08-12T00:44:42.474Z,2.83
2022-08-12T00:47:24.953Z,2.60
2022-08-12T00:49:53.890Z,2.85
2022-08-12T00:52:21.288Z,3.00
2022-08-12T00:54:58.042Z,2.97
2022-08-12T00:57:27.374Z,2.40
2022-08-12T00:59:56.794Z,2.72
2022-08-12T01:02:30.826Z,2.83
2022-08-12T01:05:21.714Z,3.05
2022-08-12T01:08:08.095Z,2.88
2022-08-12T01:10:55.593Z,2.38
2022-08-12T01:13:22.701Z,2.28
2022-08-12T01:15:52.911Z,2.42
2022-08-12T01:21:03.973Z,2.95
2022-08-12T01:23:51.832Z,2.53
2022-08-12T01:26:23.350Z,2.20
2022-08-12T01:28:58.492Z,2.33
2022-08-12T01:31:26.995Z,2.33
2022-08-12T01:34:03.390Z,2.30
2022-08-12T01:37:00.440Z,2.92
2022-08-12T01:39:31.146Z,2.58
2022-08-12T01:42:08.886Z,2.42
2022-08-12T01:44:36.674Z,2.65
2022-08-12T01:47:32.971Z,2.33
2022-08-12T01:50:21.453Z,2.65
2022-08-12T01:52:54.119Z,2.50
2022-08-12T01:55:28.477Z,2.55
2022-08-12T01:58:07.267Z,2.50
2022-08-12T02:00:55.343Z,2.75
2022-08-12T02:04:13.915Z,2.50
2022-08-12T02:07:14.784Z,2.53
2022-08-12T02:10:09.211Z,2.63
2022-08-12T02:13:09.848Z,2.40
2022-08-12T02:15:41.924Z,3.03
2022-08-12T02:18:31.896Z,2.80
2022-08-12T02:21:05.579Z,2.45
2022-08-12T02:23:34.635Z,2.72
2022-08-12T02:26:05.748Z,2.50
2022-08-12T02:28:32.865Z,2.50
2022-08-12T02:31:05.079Z,2.50
2022-08-12T02:33:35.738Z,2.53
2022-08-12T02:36:03.867Z,2.50
2022-08-12T02:38:31.191Z,2.47
2022-08-12T02:41:05.028Z,2.50
2022-08-12T02:43:44.357Z,2.78
2022-08-12T02:46:15.212Z,2.70
2022-08-12T02:48:53.546Z,2.72
2022-08-12T02:51:29.690Z,3.30
2022-08-12T02:54:05.157Z,2.58
2022-08-12T02:56:37.365Z,2.63
2022-08-12T02:59:04.524Z,2.65
2022-08-12T03:01:34.157Z,2.78
2022-08-12T03:04:04.523Z,2.70
2022-08-12T03:06:38.500Z,3.08
2022-08-12T03:09:07.020Z,2.80
2022-08-12T03:11:42.857Z,2.30
2022-08-12T03:14:17.408Z,2.37
2022-08-12T03:16:50.496Z,2.53
2022-08-12T03:19:21.113Z,2.92
2022-08-12T03:21:53.201Z,2.70
2022-08-12T03:24:38.764Z,2.30
2022-08-12T03:27:09.727Z,2.60
2022-08-12T03:29:43.445Z,2.47
2022-08-12T03:32:36.317Z,2.00
2022-08-12T03:35:07.668Z,2.60
2022-08-12T03:37:35.664Z,2.42
2022-08-12T03:40:02.650Z,2.40
2022-08-12T03:42:40.540Z,2.33
2022-08-12T03:45:46.391Z,2.42
2022-08-12T03:48:38.220Z,2.40
2022-08-12T03:51:23.644Z,2.28
2022-08-12T03:54:11.286Z,2.40
2022-08-12T03:56:58.567Z,2.08
2022-08-12T03:59:43.950Z,2.28
2022-08-12T04:02:16.970Z,2.20
2022-08-12T04:04:47.398Z,2.58
2022-08-12T04:07:16.354Z,2.08
2022-08-12T04:09:44.658Z,2.30
2022-08-12T04:12:32.731Z,2.30
2022-08-12T04:15:00.908Z,2.10
2022-08-12T04:17:28.585Z,2.30
2022-08-12T04:19:57.247Z,2.55
2022-08-12T04:22:30.179Z,2.05
2022-08-12T04:25:01.128Z,2.38
2022-08-12T04:27:29.993Z,2.30
2022-08-12T04:30:29.014Z,2.08
2022-08-12T04:32:46.192Z,2.15
2022-08-12T04:35:13.335Z,2.22
2022-08-12T04:37:58.984Z,2.65
2022-08-12T04:40:30.042Z,2.20
2022-08-12T04:42:57.596Z,2.53
2022-08-12T04:45:24.849Z,2.53
2022-08-12T04:47:51.977Z,2.17
2022-08-12T04:50:34.435Z,2.45
2022-08-12T04:53:05.311Z,2.40
2022-08-12T04:55:34.369Z,2.50
2022-08-12T04:58:01.142Z,2.47
2022-08-12T05:00:27.850Z,2.17
2022-08-12T05:02:54.871Z,2.30
2022-08-12T05:05:23.609Z,2.40
2022-08-12T05:07:55.156Z,2.40
2022-08-12T05:10:33.164Z,2.63
2022-08-12T05:13:07.116Z,2.28
2022-08-12T05:15:36.041Z,2.35
2022-08-12T05:18:16.773Z,2.30
2022-08-12T05:20:48.301Z,2.50
2022-08-12T05:23:17.978Z,2.03
2022-08-12T05:25:45.785Z,2.40
2022-08-12T05:28:13.429Z,2.30
2022-08-12T05:30:42.426Z,2.60
2022-08-12T05:33:10.329Z,2.20
2022-08-12T05:35:42.730Z,2.20
2022-08-12T05:38:29.271Z,2.30
2022-08-12T05:40:56.171Z,2.20
2022-08-12T05:43:23.207Z,2.45
2022-08-12T05:45:49.996Z,2.17
2022-08-12T05:48:17.176Z,2.55
2022-08-12T05:50:45.506Z,2.40
2022-08-12T05:53:12.414Z,2.50
2022-08-12T05:55:40.100Z,2.60
2022-08-12T05:58:08.111Z,2.30
2022-08-12T06:00:35.859Z,2.33
2022-08-12T06:03:04.667Z,1.98
2022-08-12T06:05:34.461Z,2.20
2022-08-12T06:08:21.119Z,2.35
2022-08-12T06:10:50.061Z,2.15
2022-08-12T06:13:27.994Z,2.63
2022-08-12T06:16:08.427Z,2.10
2022-08-12T06:18:35.250Z,2.40
2022-08-12T06:21:02.461Z,2.40
2022-08-12T06:23:30.246Z,2.08
2022-08-12T06:25:58.953Z,2.40
2022-08-12T06:28:26.207Z,1.85
2022-08-12T06:31:22.114Z,2.40
2022-08-12T06:33:59.557Z,1.98
2022-08-12T06:39:00.049Z,2.03
2022-08-12T06:42:10.798Z,2.03
2022-08-12T06:44:32.593Z,2.15
2022-08-12T06:46:59.585Z,2.08
2022-08-12T06:49:28.588Z,2.35
2022-08-12T06:51:57.031Z,2.20
2022-08-12T06:54:31.835Z,2.28
2022-08-12T06:57:04.221Z,2.28
2022-08-12T06:59:32.304Z,2.20
2022-08-12T07:01:59.296Z,2.22
2022-08-12T07:04:36.313Z,2.30
2022-08-12T07:07:06.787Z,2.00
2022-08-12T07:10:04.465Z,2.43
2022-08-12T07:12:22.062Z,1.77
2022-08-12T07:14:51.287Z,2.28
2022-08-12T07:17:18.189Z,1.90
2022-08-12T07:19:47.055Z,2.42
2022-08-12T07:22:16.606Z,2.15
2022-08-12T07:24:43.543Z,2.00
2022-08-12T07:27:10.204Z,2.13
2022-08-12T07:30:02.828Z,2.10
2022-08-12T07:32:25.776Z,2.13
2022-08-12T07:34:56.631Z,2.00
2022-08-12T07:37:23.482Z,2.25
2022-08-12T07:39:58.753Z,2.00
2022-08-12T07:42:26.922Z,1.90
2022-08-12T07:44:53.904Z,2.00
2022-08-12T07:47:20.773Z,2.30
2022-08-12T07:50:03.603Z,2.20
2022-08-12T07:52:34.312Z,2.10
2022-08-12T07:55:01.193Z,1.98
2022-08-12T07:57:27.851Z,2.20
2022-08-12T07:59:55.757Z,1.98
2022-08-12T08:02:26.490Z,1.95
2022-08-12T08:04:57.284Z,1.85
2022-08-12T08:07:25.748Z,1.98
2022-08-12T08:09:59.147Z,1.60
2022-08-12T08:12:49.172Z,1.90
2022-08-12T08:15:16.378Z,2.03
2022-08-12T08:17:57.983Z,1.90
2022-08-12T08:20:28.751Z,2.00
2022-08-12T08:22:56.755Z,1.92
2022-08-12T08:25:36.181Z,1.90
2022-08-12T08:28:10.257Z,1.52
2022-08-12T08:30:43.839Z,1.92
2022-08-12T08:33:24.838Z,1.88
2022-08-12T08:36:00.214Z,1.95
2022-08-12T08:38:32.052Z,1.85
2022-08-12T08:42:17.516Z,1.80
2022-08-12T08:44:05.759Z,1.98
2022-08-12T08:46:37.738Z,2.00
2022-08-12T08:49:05.490Z,1.80
2022-08-12T08:51:32.624Z,1.55
2022-08-12T08:53:59.342Z,2.00
2022-08-12T08:56:27.117Z,1.50
2022-08-12T08:58:53.797Z,1.63
2022-08-12T09:01:23.440Z,1.55
2022-08-12T09:05:08.205Z,1.70
2022-08-12T09:06:41.984Z,2.28
2022-08-12T09:09:13.478Z,1.50
2022-08-12T09:12:11.015Z,1.70
2022-08-12T09:14:46.773Z,1.52
2022-08-12T09:17:21.194Z,1.55
2022-08-12T09:22:36.026Z,1.48
2022-08-12T09:25:06.302Z,1.30
2022-08-12T09:28:03.521Z,1.42
2022-08-12T09:30:41.375Z,1.65
2022-08-12T09:33:15.256Z,1.55
2022-08-12T09:36:03.234Z,1.40
2022-08-12T09:38:33.328Z,1.50
2022-08-12T09:42:07.800Z,1.52
2022-08-12T09:44:06.295Z,1.55
2022-08-12T09:46:52.962Z,1.55
2022-08-12T09:49:19.698Z,1.60
2022-08-12T09:51:50.867Z,1.52
2022-08-12T09:54:34.191Z,1.42
2022-08-12T09:58:07.642Z,1.60
2022-08-12T10:00:15.816Z,1.83
2022-08-12T10:03:31.940Z,1.30
2022-08-12T10:06:26.194Z,1.55
2022-08-12T10:08:45.174Z,1.40
2022-08-12T10:12:10.543Z,1.50
2022-08-12T10:14:34.250Z,1.60
2022-08-12T10:17:02.077Z,1.60
2022-08-12T10:19:36.136Z,1.63
2022-08-12T10:22:06.001Z,1.63
2022-08-12T10:25:04.804Z,1.90
2022-08-12T10:28:07.068Z,1.45
2022-08-12T10:30:43.996Z,1.70
2022-08-12T10:33:19.111Z,1.60
2022-08-12T10:35:50.144Z,1.35
2022-08-12T10:38:37.445Z,1.38
2022-08-12T10:41:58.522Z,1.55
2022-08-12T10:44:12.485Z,1.40
2022-08-12T10:46:49.504Z,1.70
2022-08-12T10:50:02.793Z,1.38
2022-08-12T10:52:34.496Z,1.60
2022-08-12T10:54:53.277Z,1.70
2022-08-12T10:58:12.610Z,1.58
2022-08-12T11:00:30.982Z,1.60
2022-08-12T11:04:20.435Z,1.45
2022-08-12T11:07:02.816Z,1.50
2022-08-12T11:08:43.669Z,1.40
2022-08-12T11:11:27.755Z,1.40
2022-08-12T11:14:05.561Z,1.40
2022-08-12T11:16:33.255Z,1.63
2022-08-12T11:19:02.982Z,1.40
2022-08-12T11:21:56.770Z,1.27
2022-08-12T11:24:31.912Z,1.45
2022-08-12T11:27:00.878Z,1.55
2022-08-12T11:30:01.761Z,2.03
2022-08-12T11:32:15.162Z,1.55
2022-08-12T11:34:53.195Z,1.70
2022-08-12T11:37:26.497Z,1.52
2022-08-12T11:42:46.399Z,1.30
2022-08-12T11:45:16.549Z,1.50
2022-08-12T11:47:43.863Z,1.20
2022-08-12T11:50:11.725Z,1.40
2022-08-12T11:52:56.097Z,1.30
2022-08-12T11:55:25.091Z,1.50
2022-08-12T11:58:07.459Z,1.50
2022-08-12T12:03:44.075Z,1.48
2022-08-12T12:06:17.870Z,1.40
2022-08-12T12:08:50.363Z,1.50
2022-08-12T12:11:18.866Z,1.40
2022-08-12T12:14:08.432Z,1.38
2022-08-12T12:16:33.497Z,1.50
2022-08-12T12:19:00.539Z,1.33
2022-08-12T12:21:48.017Z,1.30
2022-08-12T12:24:21.364Z,1.30
2022-08-12T12:27:00.602Z,1.50
2022-08-12T12:30:17.928Z,1.30
2022-08-12T12:32:29.396Z,1.35
2022-08-12T12:35:13.588Z,1.70
2022-08-12T12:38:05.150Z,1.38
2022-08-12T12:40:43.658Z,1.60
2022-08-12T12:43:12.301Z,1.10
2022-08-12T12:45:44.069Z,1.42
2022-08-12T12:48:17.824Z,1.35
2022-08-12T12:50:51.399Z,1.80
2022-08-12T12:54:08.035Z,1.30
2022-08-12T12:56:34.142Z,1.13
2022-08-12T12:59:03.655Z,1.20
2022-08-12T13:01:32.860Z,1.40
2022-08-12T13:04:02.957Z,1.20
2022-08-12T13:06:31.389Z,1.48
2022-08-12T13:09:02.953Z,1.50
2022-08-12T13:11:41.440Z,1.23
2022-08-12T13:14:27.638Z,1.33
2022-08-12T13:16:55.397Z,1.40
2022-08-12T13:19:25.082Z,1.55
2022-08-12T13:22:18.985Z,1.20
2022-08-12T13:24:55.756Z,1.40
2022-08-12T13:27:35.329Z,1.20
2022-08-12T13:30:11.412Z,1.33
2022-08-12T13:32:58.843Z,1.35
2022-08-12T13:36:02.904Z,1.35
2022-08-12T13:38:13.168Z,1.30
2022-08-12T13:40:40.421Z,1.67
2022-08-12T13:43:07.181Z,1.50
2022-08-12T13:45:35.509Z,1.25
2022-08-12T13:48:05.837Z,1.30
2022-08-12T13:50:37.618Z,1.27
2022-08-12T13:53:24.420Z,1.17
2022-08-12T13:56:01.503Z,1.40
2022-08-12T13:58:30.191Z,1.30
2022-08-12T14:00:58.077Z,1.17
2022-08-12T14:03:28.686Z,1.40
2022-08-12T14:06:15.427Z,1.33
2022-08-12T14:08:43.135Z,1.40
2022-08-12T14:11:12.552Z,1.25
2022-08-12T14:14:05.430Z,1.25
2022-08-12T14:16:37.934Z,1.00
2022-08-12T14:19:22.941Z,1.23
2022-08-12T14:21:59.793Z,1.38
2022-08-12T14:24:36.926Z,1.02
2022-08-12T14:27:09.144Z,1.23
2022-08-12T14:30:05.106Z,1.15
2022-08-12T14:32:28.079Z,1.20
2022-08-12T14:34:56.704Z,0.93
2022-08-12T14:37:57.745Z,1.20
2022-08-12T14:40:11.785Z,1.58
2022-08-12T14:42:46.903Z,1.30
2022-08-12T14:45:13.946Z,1.33
2022-08-12T14:47:58.438Z,1.25
2022-08-12T14:50:41.166Z,1.25
2022-08-12T14:55:18.226Z,1.00
2022-08-12T14:59:23.287Z,1.10
2022-08-12T15:01:52.218Z,1.10
2022-08-12T15:04:28.560Z,1.20
2022-08-12T15:06:55.979Z,1.10
2022-08-12T15:09:29.169Z,1.20
2022-08-12T15:12:03.986Z,1.13
2022-08-12T15:14:32.242Z,1.10
2022-08-12T15:17:02.656Z,1.30
2022-08-12T15:20:22.406Z,1.13
2022-08-12T15:22:39.583Z,1.33
2022-08-12T15:25:07.393Z,1.40
2022-08-12T15:28:04.089Z,1.10
2022-08-12T15:30:31.080Z,1.38
2022-08-12T15:32:58.047Z,1.48
2022-08-12T15:35:31.378Z,1.35
2022-08-12T15:38:09.641Z,1.17
2022-08-12T15:40:46.733Z,1.20
2022-08-12T15:44:16.901Z,1.40
2022-08-12T15:46:06.259Z,1.38
2022-08-12T15:48:33.205Z,1.42
2022-08-12T15:51:03.915Z,1.20
2022-08-12T15:53:54.675Z,1.30
2022-08-12T15:56:29.418Z,1.08
2022-08-12T15:59:00.335Z,1.20
2022-08-12T16:01:35.145Z,1.20
2022-08-12T16:04:03.096Z,1.30
2022-08-12T16:09:55.735Z,1.45
2022-08-12T16:12:12.074Z,1.38
2022-08-12T16:17:08.803Z,1.20
2022-08-12T16:20:03.687Z,1.02
2022-08-12T16:22:26.592Z,1.13
2022-08-12T16:24:54.078Z,1.20
2022-08-12T16:27:23.661Z,0.93
2022-08-12T16:29:57.612Z,1.08
2022-08-12T16:32:31.211Z,1.40
2022-08-12T16:34:59.894Z,1.13
2022-08-12T16:37:32.576Z,1.23
2022-08-12T16:40:15.479Z,1.30
2022-08-12T16:42:53.682Z,1.02
2022-08-12T16:46:04.557Z,1.30
2022-08-12T16:48:33.716Z,1.08
2022-08-12T16:51:09.813Z,0.95
2022-08-12T16:53:44.508Z,1.00
2022-08-12T16:56:17.209Z,1.13
2022-08-12T16:58:44.828Z,1.15
2022-08-12T17:01:14.016Z,1.30
2022-08-12T17:03:45.616Z,0.80
2022-08-12T17:06:22.592Z,1.25
2022-08-12T17:09:02.283Z,1.10
2022-08-12T17:11:32.775Z,1.08
2022-08-12T17:13:59.838Z,1.00
2022-08-12T17:16:30.017Z,1.10
2022-08-12T17:18:59.656Z,0.93
2022-08-12T17:21:41.424Z,1.10
2022-08-12T17:24:22.317Z,1.10
2022-08-12T17:26:53.885Z,0.95
2022-08-12T17:29:32.194Z,0.98
2022-08-12T17:32:11.298Z,1.20
2022-08-12T17:35:07.291Z,1.10
2022-08-12T17:37:37.329Z,1.02
2022-08-12T17:40:12.631Z,1.00
2022-08-12T17:42:47.655Z,1.02
2022-08-12T17:45:19.413Z,1.05
2022-08-12T17:48:04.991Z,1.00
2022-08-12T17:50:38.234Z,0.90
2022-08-12T17:53:07.988Z,1.20
2022-08-12T17:55:44.344Z,1.30
2022-08-12T18:00:45.140Z,1.38
2022-08-12T18:04:04.282Z,1.00
2022-08-12T18:06:13.645Z,1.10
2022-08-12T18:08:55.004Z,0.90
2022-08-12T18:12:05.591Z,1.05
2022-08-12T18:14:32.388Z,0.93
2022-08-12T18:17:00.652Z,1.00
2022-08-12T18:19:48.529Z,1.00
2022-08-12T18:22:22.013Z,0.90
2022-08-12T18:25:06.463Z,1.10
2022-08-12T18:27:43.521Z,1.10
2022-08-12T18:30:13.212Z,1.20
2022-08-12T18:32:58.361Z,1.08
2022-08-12T18:35:29.954Z,1.00
2022-08-12T18:38:16.725Z,0.80
2022-08-12T18:41:04.127Z,1.00
2022-08-12T18:43:36.913Z,1.10
2022-08-12T18:46:12.181Z,0.98
2022-08-12T18:48:41.809Z,1.08
2022-08-12T18:54:07.156Z,0.90
2022-08-12T18:59:04.158Z,0.93
2022-08-12T19:02:19.741Z,1.15
2022-08-12T19:04:18.557Z,1.08
2022-08-12T19:06:46.818Z,0.90
2022-08-12T19:09:15.050Z,1.05
2022-08-12T19:12:01.644Z,1.20
2022-08-12T19:14:28.645Z,1.10
2022-08-12T19:17:04.984Z,1.20
2022-08-12T19:19:41.285Z,1.00
2022-08-12T19:22:08.728Z,1.10
2022-08-12T19:24:53.884Z,0.90
2022-08-12T19:27:21.481Z,1.30
2022-08-12T19:30:06.868Z,1.10
2022-08-12T19:32:35.599Z,1.10
2022-08-12T19:36:07.680Z,0.98
2022-08-12T19:38:06.450Z,1.10
2022-08-12T19:40:37.285Z,1.00
2022-08-12T19:43:19.293Z,1.00
2022-08-12T19:45:50.420Z,1.45
2022-08-12T19:48:19.400Z,1.15
2022-08-12T19:50:52.275Z,1.10
2022-08-12T19:53:24.123Z,1.00
2022-08-12T19:55:53.098Z,1.08
2022-08-12T19:58:20.838Z,0.90
2022-08-12T20:00:52.726Z,1.17
2022-08-12T20:03:39.030Z,0.98
2022-08-12T20:06:18.216Z,1.10
2022-08-12T20:08:56.461Z,0.80
2022-08-12T20:12:12.406Z,1.00
2022-08-12T20:14:17.887Z,1.25
2022-08-12T20:16:53.013Z,1.10
2022-08-12T20:19:28.561Z,1.05
2022-08-12T20:22:24.736Z,1.00
2022-08-12T20:25:01.683Z,1.00
2022-08-12T20:28:03.537Z,1.05
2022-08-12T20:30:20.677Z,1.20
2022-08-12T20:33:05.398Z,1.00
2022-08-12T20:36:05.816Z,0.90
2022-08-12T20:38:26.422Z,1.10
2022-08-12T20:40:55.573Z,1.00
2022-08-12T20:43:23.958Z,1.02
2022-08-12T20:45:57.804Z,1.20
2022-08-12T20:48:29.489Z,1.00
2022-08-12T20:51:04.623Z,1.20
2022-08-12T20:53:57.807Z,1.08
2022-08-12T20:56:30.760Z,1.00
2022-08-12T20:59:00.815Z,1.40
2022-08-12T21:01:36.676Z,1.10
2022-08-12T21:04:32.733Z,1.10
2022-08-12T21:07:08.574Z,1.00
2022-08-12T21:09:40.812Z,1.25
2022-08-12T21:12:28.243Z,1.08
2022-08-12T21:15:17.542Z,0.93
2022-08-12T21:18:00.782Z,1.00
2022-08-12T21:20:37.109Z,1.33
2022-08-12T21:23:06.306Z,1.20
2022-08-12T21:25:44.587Z,1.10
2022-08-12T21:28:18.975Z,1.20
2022-08-12T21:31:11.007Z,1.20
2022-08-12T21:33:58.278Z,1.00
2022-08-12T21:36:22.806Z,0.93
2022-08-12T21:39:20.401Z,1.00
2022-08-12T21:41:53.120Z,1.10
2022-08-12T21:45:45.367Z,1.02
2022-08-12T21:47:20.072Z,0.93
2022-08-12T21:50:02.295Z,1.10
2022-08-12T21:52:34.795Z,1.40
2022-08-12T21:55:03.444Z,1.23
2022-08-12T21:57:36.360Z,1.27
2022-08-12T22:00:17.533Z,1.33
2022-08-12T22:03:03.109Z,1.10
2022-08-12T22:05:49.219Z,1.40
2022-08-12T22:08:22.226Z,1.00
2022-08-12T22:10:52.620Z,1.30
2022-08-12T22:14:07.878Z,1.00
2022-08-12T22:16:15.777Z,1.10
2022-08-12T22:18:50.206Z,1.10
2022-08-12T22:21:22.008Z,1.05
2022-08-12T22:23:51.906Z,1.27
2022-08-12T22:26:37.364Z,0.93
2022-08-12T22:29:23.580Z,1.30
2022-08-12T22:31:54.519Z,1.27
2022-08-12T22:34:22.122Z,1.02
2022-08-12T22:36:57.222Z,1.15
2022-08-12T22:39:26.299Z,1.10
2022-08-12T22:42:12.099Z,1.05
2022-08-12T22:44:57.507Z,1.75
2022-08-12T22:47:53.588Z,1.30
2022-08-12T22:50:28.934Z,1.10
2022-08-12T22:53:15.014Z,1.33
2022-08-12T22:56:00.364Z,1.10
2022-08-12T22:58:33.190Z,0.90
2022-08-12T23:01:02.749Z,1.05
2022-08-12T23:03:49.191Z,1.30
2022-08-12T23:06:26.900Z,1.17
2022-08-12T23:08:55.049Z,1.30
2022-08-12T23:11:23.231Z,1.13
2022-08-12T23:13:55.515Z,1.10
2022-08-12T23:16:31.767Z,0.98
2022-08-12T23:19:09.572Z,0.90
2022-08-12T23:22:03.792Z,1.10
2022-08-12T23:24:29.517Z,1.10
2022-08-12T23:27:15.678Z,1.00
2022-08-12T23:30:17.454Z,1.15
2022-08-12T23:32:35.997Z,1.10
2022-08-12T23:35:06.555Z,1.10
2022-08-12T23:37:47.625Z,1.40
2022-08-12T23:40:22.301Z,1.30
2022-08-12T23:45:20.680Z,1.27
2022-08-12T23:47:59.937Z,1.20
2022-08-12T23:50:34.353Z,1.23
2022-08-12T23:53:06.696Z,1.17
2022-08-12T23:55:45.511Z,1.20
2022-08-12T23:58:21.614Z,0.98
